Airfield :
LOGIN :

Register | Disclaimer

   EN    FR    IT 

 










Legend :    VFR   Marginal VFR   IFR   Intensive IFR   Very Intensive IFR
Visi :
Ceiling :
>= 8 km
>= 3000ft
5 to 8 km
1000 to 3000 ft
1500m to 5 km
500 to 1000 ft
800 to 1500m
200 to 500 ft
< 800m
< 200 ft
Symbols :   Thunderstorms  Fog  Heavy snow  Heavy precipitations  Wind > 20 kt
SIGMETs :     Misc.  Thunderstorms  Icing  Turbulence  Mountain Waves  Volcanic Ashes







- Airport Elevation : 465 ft
- IATA code : LEJ


EDDP - Leipzig Halle

CURRENT METAR :
  • 161620Z VRB02KT 9999 SCT040 16/10 Q1019 NOSIG

EXPIRED METARs :
  • 161550Z 26004KT CAVOK 17/09 Q1018 NOSIG
  • 161520Z 26004KT CAVOK 17/09 Q1018 NOSIG
  • 161450Z 26002KT CAVOK 17/08 Q1018 NOSIG
  • 161420Z VRB01KT CAVOK 18/08 Q1018 NOSIG
  • 161350Z 30003KT 260V350 CAVOK 18/08 Q1018 NOSIG

TAF TAF EDDP
Valid from the 16 at 12:00 until the 17 at 12:00 UTC


161100Z 1612/1712 VRB03KT CAVOK
BECMG 1703/1705 4000 BR
TEMPO 1703/1708 1200 BCFG
PROB30
TEMPO 1704/1707 0600 FG BKN002
BECMG 1707/1710 8000
No reported NOTAMs for that airfield.



MET'MAP, your aeronautical weather chart ! - Copyright ORBIFLY December 2007 - Disclaimer

ORBIFLY MET'MAP TEAM :

Programming & Development : Alexandra Zaïnal
Concept & Development : Baudouin d'Aumeries
Co-Development & Prog : Marc-Olivier Méhu
Technical & hardware support : Manuel Goepfert

Contact : metmap@orbifly.com




SOURCES & CREDITS :

   NOAA